logo tempoitalia

Diretta Meteo Castres-Mazamet, Francialunedì 31 agosto ore 08:00

Mappa
Sereno 20 °C Coperto 24 Ore: T.min 19 T.max 34
Ponente Ovest Km/h 9.3 Punto di rugiada: 16 °C Umidità: 77% Visibilità: 10 Km
Il sole sorge alle: 07:13 Il sole tramonta alle: 20:28
31 Agosto 2026 08:00 tempo osservato: Coperto Coperto 20 77 1022 vento: Nord O 9.3
31 Agosto 2026 07:30 tempo osservato: Coperto Coperto 19 82 1022 vento: Nord O/NO 7.4
31 Agosto 2026 07:00 tempo osservato: Sereno Sereno 20 77 1022 vento: Nord O/NO 9.3
31 Agosto 2026 06:30 tempo osservato: Coperto Coperto 20 77 1022 vento: Nord NO 11.1
31 Agosto 2026 06:00 tempo osservato: Coperto Coperto 20 77 1022 vento: Nord NO 13
31 Agosto 2026 05:30 tempo osservato: Coperto Coperto 20 77 1022 vento: Nord NO 13
31 Agosto 2026 05:00 tempo osservato: Coperto Coperto 21 73 1022 vento: Nord O/NO 13
31 Agosto 2026 04:30 tempo osservato: Coperto Coperto 21 73 1022 vento: Nord O/NO 18.5
31 Agosto 2026 04:00 tempo osservato: Coperto Coperto 21 73 1022 vento: Nord O/NO 16.7
31 Agosto 2026 03:30 tempo osservato: Coperto Coperto 21 73 1022 vento: Nord O/NO 14.8
31 Agosto 2026 03:00 tempo osservato: Molto Nuvoloso Molto Nuvoloso 22 68 1021 vento: Nord O/NO 14.8
31 Agosto 2026 02:30 tempo osservato: Molto Nuvoloso Molto Nuvoloso 22 68 1021 vento: Nord O 11.1
31 Agosto 2026 02:00 tempo osservato: Molto Nuvoloso Molto Nuvoloso 22 73 1021 vento: Nord O/NO 11.1
31 Agosto 2026 01:30 tempo osservato: Coperto Coperto 23 68 1021 vento: Nord O/NO 13
31 Agosto 2026 01:00 tempo osservato: Coperto Coperto 23 68 1021 vento: Nord NO 14.8
31 Agosto 2026 00:30 tempo osservato: Molto Nuvoloso Molto Nuvoloso 23 73 1021 vento: Nord O/NO 24
31 Agosto 2026 00:00 tempo osservato: Sereno Sereno 24 69 1020 vento: Nord O 20.3
30 Agosto 2026 23:30 tempo osservato: Sereno Sereno 23 60 1019 vento: Nord N 1.8
30 Agosto 2026 23:00 tempo osservato: Sereno Sereno 25 53 1019 vento: Nord O 7.4
30 Agosto 2026 22:30 tempo osservato: Sereno Sereno 26 50 1019 vento: Nord O 9.3
30 Agosto 2026 22:00 tempo osservato: Sereno Sereno 26 50 1018 vento: Nord O 7.4
30 Agosto 2026 21:30 tempo osservato: Sereno Sereno 26 47 1018 vento: Nord O/SO 9.3
30 Agosto 2026 21:00 tempo osservato: Sereno Sereno 28 42 1017 vento: Nord NO 13
30 Agosto 2026 20:30 tempo osservato: Sereno Sereno 29 39 1017 vento: Nord N/NO 20.3
30 Agosto 2026 20:00 tempo osservato: Sereno Sereno 30 35 1016 vento: Nord N 13
30 Agosto 2026 19:30 tempo osservato: Sereno Sereno 31 31 1015 vento: Nord NO 14.8
30 Agosto 2026 19:00 tempo osservato: Sereno Sereno 33 26 1015 vento: Nord NO 13
30 Agosto 2026 18:30 tempo osservato: Sereno Sereno 33 27 1015 vento: Nord NO 11.1
30 Agosto 2026 18:00 tempo osservato: Sereno Sereno 34 23 1015 vento: Nord N/NO 9.3
30 Agosto 2026 17:30 tempo osservato: Sereno Sereno 33 24 1015 vento: Nord N 11.1
30 Agosto 2026 17:00 tempo osservato: Sereno Sereno 33 26 1015 vento: Nord N 5.5
30 Agosto 2026 16:30 tempo osservato: Sereno Sereno 33 27 1015 vento: Nord N 9.3
30 Agosto 2026 16:00 tempo osservato: Sereno Sereno 33 27 1015 vento: Nord N 3.7
30 Agosto 2026 15:30 tempo osservato: Sereno Sereno 32 33 1016 vento: Nord N 5.5
30 Agosto 2026 15:00 tempo osservato: Sereno Sereno 32 35 1016 vento: Nord N 3.7
30 Agosto 2026 14:30 tempo osservato: Sereno Sereno 31 37 1017 vento: Nord N 5.5
30 Agosto 2026 14:00 tempo osservato: Sereno Sereno 30 40 1017 vento: Nord O 9.3
30 Agosto 2026 13:30 tempo osservato: Sereno Sereno 29 42 1017 vento: Nord N 5.5
30 Agosto 2026 13:00 tempo osservato: Sereno Sereno 28 45 1017 vento: Nord NO 7.4
30 Agosto 2026 12:30 tempo osservato: Sereno Sereno 27 47 1018 vento: Nord NO 7.4
30 Agosto 2026 12:00 tempo osservato: Sereno Sereno 26 50 1018 vento: Nord N 3.7
30 Agosto 2026 11:30 tempo osservato: Sereno Sereno 25 50 1019 vento: Nord N 5.5
30 Agosto 2026 11:00 tempo osservato: Sereno Sereno 24 53 1019 vento: Nord N 5.5
30 Agosto 2026 10:30 tempo osservato: Sereno Sereno 23 56 1019 vento: Nord N 3.7
30 Agosto 2026 10:00 tempo osservato: Sereno Sereno 23 56 1019 vento: Nord N 3.7
30 Agosto 2026 09:30 tempo osservato: Sereno Sereno 22 60 1019 vento: Nord N 1.8
30 Agosto 2026 09:00 tempo osservato: Sereno Sereno 21 64 1019 vento: Nord N 1.8